Terminal Aerodrome Forecast
Issued by NWS

Home | Current Version | Previous Version | Graphics & Text | Print | Product List | Glossary On
Versions: 1 2 3 4 5 6 7 8 9 10 11 12
219
FTUS43 KICT 191137
TAFRSL
TAF
KRSL 191137Z 1912/2012 24006KT P6SM SKC
     FM191600 24010KT P6SM SKC
     FM191900 22016G24KT P6SM SKC
     FM192300 20011KT P6SM SCT250=

USA.gov is the U.S. government's official web portal to all federal, state and local government web resources and services.